createdAt,value
2023-04-18T00:01:24.918Z,72.34
2023-04-18T00:03:52.181Z,71.88
2023-04-18T00:06:19.374Z,71.52
2023-04-18T00:08:48.666Z,70.57
2023-04-18T00:11:15.119Z,70.20
2023-04-18T00:13:41.740Z,69.55
2023-04-18T00:16:08.766Z,68.03
2023-04-18T00:18:36.913Z,68.15
2023-04-18T00:21:04.452Z,67.89
2023-04-18T00:23:31.116Z,67.51
2023-04-18T00:25:57.530Z,67.29
2023-04-18T00:28:24.770Z,67.04
2023-04-18T00:30:51.479Z,66.97
2023-04-18T00:33:22.283Z,65.51
2023-04-18T00:35:48.700Z,65.72
2023-04-18T00:38:15.262Z,65.11
2023-04-18T00:40:41.963Z,64.95
2023-04-18T00:43:08.503Z,64.35
2023-04-18T00:45:35.332Z,63.88
2023-04-18T00:48:02.139Z,63.70
2023-04-18T00:50:28.758Z,62.73
2023-04-18T00:52:56.009Z,62.59
2023-04-18T00:55:22.777Z,62.23
2023-04-18T00:57:49.286Z,61.93
2023-04-18T01:00:15.924Z,61.41
2023-04-18T01:02:42.775Z,61.56
2023-04-18T01:05:09.808Z,61.04
2023-04-18T01:07:41.736Z,61.04
2023-04-18T01:10:10.268Z,60.63
2023-04-18T01:12:37.785Z,60.17
2023-04-18T01:15:09.461Z,59.66
2023-04-18T01:17:38.035Z,60.02
2023-04-18T01:20:06.497Z,59.92
2023-04-18T01:22:33.659Z,59.84
2023-04-18T01:25:00.294Z,59.83
2023-04-18T01:27:26.909Z,59.79
2023-04-18T01:29:53.436Z,59.90
2023-04-18T01:32:20.455Z,59.61
2023-04-18T01:34:47.232Z,59.52
2023-04-18T01:37:13.697Z,59.37
2023-04-18T01:39:40.248Z,59.42
2023-04-18T01:42:06.627Z,58.98
2023-04-18T01:44:33.126Z,58.95
2023-04-18T01:46:59.636Z,58.70
2023-04-18T01:49:26.203Z,58.82
2023-04-18T01:51:54.292Z,58.76
2023-04-18T01:54:20.786Z,58.36
2023-04-18T01:56:47.207Z,58.27
2023-04-18T01:59:13.620Z,58.09
2023-04-18T02:01:40.573Z,57.60
2023-04-18T02:04:07.112Z,58.00
2023-04-18T02:06:33.665Z,57.21
2023-04-18T02:09:00.386Z,57.40
2023-04-18T02:11:26.933Z,57.01
2023-04-18T02:13:53.418Z,57.16
2023-04-18T02:16:19.976Z,56.62
2023-04-18T02:18:52.428Z,56.74
2023-04-18T02:21:18.944Z,56.84
2023-04-18T02:23:45.467Z,56.57
2023-04-18T02:26:12.006Z,56.35
2023-04-18T02:28:39.208Z,56.65
2023-04-18T02:31:06.619Z,56.22
2023-04-18T02:33:34.134Z,56.54
2023-04-18T02:36:03.743Z,56.18
2023-04-18T02:38:30.304Z,56.29
2023-04-18T02:40:56.820Z,56.29
2023-04-18T02:43:23.291Z,56.34
2023-04-18T02:45:49.941Z,56.10
2023-04-18T02:48:16.469Z,55.66
2023-04-18T02:50:43.030Z,55.80
2023-04-18T02:53:09.580Z,55.66
2023-04-18T02:55:37.321Z,55.74
2023-04-18T02:58:04.992Z,55.49
2023-04-18T03:00:31.635Z,55.40
2023-04-18T03:02:58.317Z,55.19
2023-04-18T03:05:24.920Z,55.14
2023-04-18T03:07:51.459Z,55.21
2023-04-18T03:10:19.289Z,55.49
2023-04-18T03:12:47.620Z,55.25
2023-04-18T03:15:14.268Z,55.58
2023-04-18T03:17:44.012Z,55.67
2023-04-18T03:20:10.848Z,55.79
2023-04-18T03:22:37.252Z,55.92
2023-04-18T03:25:04.028Z,56.30
2023-04-18T03:27:30.795Z,56.49
2023-04-18T03:29:57.199Z,55.96
2023-04-18T03:32:23.586Z,56.34
2023-04-18T03:34:51.335Z,56.52
2023-04-18T03:37:17.725Z,56.21
2023-04-18T03:39:44.362Z,56.38
2023-04-18T03:42:10.907Z,56.71
2023-04-18T03:44:37.262Z,56.65
2023-04-18T03:47:03.748Z,56.91
2023-04-18T03:49:30.175Z,56.59
2023-04-18T03:51:56.732Z,56.81
2023-04-18T03:54:23.177Z,57.13
2023-04-18T03:56:49.620Z,56.95
2023-04-18T03:59:19.134Z,57.29
2023-04-18T04:01:45.739Z,57.83
2023-04-18T04:04:15.209Z,58.17
2023-04-18T04:06:42.293Z,58.53
2023-04-18T04:09:08.870Z,58.57
2023-04-18T04:11:35.246Z,59.03
2023-04-18T04:14:02.155Z,59.24
2023-04-18T04:16:28.895Z,59.44
2023-04-18T04:18:55.725Z,59.79
2023-04-18T04:21:22.099Z,60.48
2023-04-18T04:23:48.807Z,60.18
2023-04-18T04:26:15.650Z,60.63
2023-04-18T04:28:42.927Z,61.04
2023-04-18T04:31:10.272Z,61.38
2023-04-18T04:33:39.003Z,61.62
2023-04-18T04:36:06.784Z,61.55
2023-04-18T04:38:33.532Z,62.03
2023-04-18T04:40:59.968Z,62.31
2023-04-18T04:43:28.702Z,62.36
2023-04-18T04:45:55.734Z,62.81
2023-04-18T04:48:22.378Z,63.05
2023-04-18T04:50:53.738Z,63.63
2023-04-18T04:53:20.112Z,63.72
2023-04-18T04:55:46.719Z,63.42
2023-04-18T04:58:13.130Z,63.99
2023-04-18T05:00:39.947Z,64.02
2023-04-18T05:03:07.151Z,64.40
2023-04-18T05:05:34.012Z,64.50
2023-04-18T05:08:00.595Z,65.23
2023-04-18T05:10:27.005Z,65.00
2023-04-18T05:12:53.511Z,65.34
2023-04-18T05:15:20.248Z,65.55
2023-04-18T05:17:46.752Z,66.21
2023-04-18T05:20:13.330Z,66.01
2023-04-18T05:22:42.886Z,66.46
2023-04-18T05:25:09.549Z,66.24
2023-04-18T05:27:36.025Z,66.74
2023-04-18T05:30:02.414Z,66.93
2023-04-18T05:32:28.852Z,67.63
2023-04-18T05:34:55.687Z,67.21
2023-04-18T05:37:22.656Z,67.67
2023-04-18T05:39:49.152Z,67.97
2023-04-18T05:42:15.737Z,67.99
2023-04-18T05:44:42.138Z,68.42
2023-04-18T05:47:08.585Z,68.58
2023-04-18T05:49:35.192Z,68.53
2023-04-18T05:52:01.676Z,69.09
2023-04-18T05:54:28.362Z,69.29
2023-04-18T05:56:57.257Z,69.13
2023-04-18T05:59:23.755Z,69.78
2023-04-18T06:01:50.193Z,69.39
2023-04-18T06:04:17.003Z,69.91
2023-04-18T06:06:43.809Z,69.81
2023-04-18T06:09:10.283Z,70.05
2023-04-18T06:11:36.816Z,69.79
2023-04-18T06:14:03.642Z,70.42
2023-04-18T06:16:30.264Z,70.85
2023-04-18T06:18:59.546Z,71.11
2023-04-18T06:21:29.875Z,70.62
2023-04-18T06:23:57.514Z,71.24
2023-04-18T06:26:24.514Z,71.28
2023-04-18T06:28:50.925Z,71.51
2023-04-18T06:31:17.454Z,71.59
2023-04-18T06:33:43.993Z,71.58
2023-04-18T06:36:10.498Z,72.05
2023-04-18T06:38:37.081Z,72.42
2023-04-18T06:41:03.565Z,72.75
2023-04-18T06:43:30.142Z,72.42
2023-04-18T06:45:57.113Z,72.86
2023-04-18T06:48:23.614Z,73.12
2023-04-18T06:50:50.105Z,73.22
2023-04-18T06:53:16.546Z,73.25
2023-04-18T06:55:45.768Z,73.02
2023-04-18T06:58:13.741Z,72.87
2023-04-18T07:00:40.330Z,72.47
2023-04-18T07:03:11.298Z,72.98
2023-04-18T07:05:40.866Z,72.51
2023-04-18T07:08:08.413Z,72.33
2023-04-18T07:10:35.617Z,72.23
2023-04-18T07:13:02.301Z,72.27
2023-04-18T07:15:29.289Z,71.83
2023-04-18T07:17:56.064Z,71.76
2023-04-18T07:20:22.607Z,71.52
2023-04-18T07:22:49.077Z,71.28
2023-04-18T07:25:15.562Z,71.44
2023-04-18T07:27:42.089Z,71.59
2023-04-18T07:30:10.681Z,71.05
2023-04-18T07:32:41.303Z,70.17
2023-04-18T07:35:08.064Z,71.09
2023-04-18T07:37:34.748Z,70.81
2023-04-18T07:40:01.201Z,69.84
2023-04-18T07:42:27.863Z,69.16
2023-04-18T07:45:00.711Z,66.03
2023-04-18T07:47:29.788Z,63.41
2023-04-18T07:49:57.354Z,61.30
2023-04-18T07:52:23.814Z,61.49
2023-04-18T07:54:50.435Z,60.91
2023-04-18T07:57:19.234Z,60.00
2023-04-18T07:59:46.178Z,57.76
2023-04-18T08:02:12.643Z,55.91
2023-04-18T08:04:39.264Z,55.67
2023-04-18T08:07:06.051Z,53.93
2023-04-18T08:09:32.682Z,52.37
2023-04-18T08:11:59.432Z,51.39
2023-04-18T08:14:25.973Z,50.13
2023-04-18T08:16:52.619Z,49.85
2023-04-18T08:19:19.237Z,48.97
2023-04-18T08:21:46.132Z,49.36
2023-04-18T08:24:13.738Z,47.88
2023-04-18T08:26:40.121Z,47.81
2023-04-18T08:29:07.286Z,47.82
2023-04-18T08:31:33.802Z,48.21
2023-04-18T08:34:00.220Z,47.47
2023-04-18T08:36:26.772Z,46.64
2023-04-18T08:38:53.326Z,45.76
2023-04-18T08:41:23.324Z,45.95
2023-04-18T08:43:49.796Z,46.44
2023-04-18T08:46:17.202Z,46.74
2023-04-18T08:48:43.764Z,47.08
2023-04-18T08:51:10.272Z,47.81
2023-04-18T08:53:36.740Z,48.67
2023-04-18T08:56:05.318Z,49.36
2023-04-18T08:58:33.684Z,50.72
2023-04-18T09:01:00.887Z,51.15
2023-04-18T09:03:39.812Z,50.94
2023-04-18T09:06:14.844Z,50.04
2023-04-18T09:08:54.728Z,48.86
2023-04-18T09:11:26.393Z,49.49
2023-04-18T09:13:56.164Z,48.90
2023-04-18T09:16:23.612Z,48.46
2023-04-18T09:19:11.072Z,46.97
2023-04-18T09:21:46.255Z,46.32
2023-04-18T09:24:21.211Z,46.60
2023-04-18T09:26:49.793Z,47.06
2023-04-18T09:29:18.411Z,47.08
2023-04-18T09:32:01.259Z,47.22
2023-04-18T09:34:29.031Z,48.15
2023-04-18T09:37:10.044Z,48.61
2023-04-18T09:39:41.183Z,49.20
2023-04-18T09:42:10.375Z,49.65
2023-04-18T09:44:37.840Z,49.84
2023-04-18T09:47:07.136Z,50.44
2023-04-18T09:49:35.164Z,49.19
2023-04-18T09:52:05.160Z,48.67
2023-04-18T09:54:37.808Z,48.95
2023-04-18T09:57:10.392Z,49.63
2023-04-18T09:59:51.073Z,50.23
2023-04-18T10:02:22.589Z,50.80
2023-04-18T10:04:54.223Z,51.07
2023-04-18T10:07:20.869Z,51.55
2023-04-18T10:09:48.946Z,51.82
2023-04-18T10:12:17.860Z,51.76
2023-04-18T10:14:44.713Z,51.67
2023-04-18T10:17:16.948Z,52.07
2023-04-18T10:19:45.825Z,51.87
2023-04-18T10:22:13.232Z,52.30
2023-04-18T10:24:45.956Z,52.51
2023-04-18T10:27:12.971Z,52.24
2023-04-18T10:29:54.598Z,51.64
2023-04-18T10:32:24.156Z,51.05
2023-04-18T10:34:53.372Z,50.83
2023-04-18T10:37:19.906Z,50.84
2023-04-18T10:40:02.814Z,51.54
2023-04-18T10:42:47.560Z,51.50
2023-04-18T10:45:22.079Z,51.11
2023-04-18T10:47:49.169Z,51.24
2023-04-18T10:50:17.327Z,51.61
2023-04-18T10:52:44.276Z,50.89
2023-04-18T10:55:28.841Z,50.02
2023-04-18T10:57:56.951Z,49.24
2023-04-18T11:00:23.585Z,49.71
2023-04-18T11:02:52.781Z,50.20
2023-04-18T11:05:22.219Z,50.62
2023-04-18T11:07:51.352Z,50.36
2023-04-18T11:10:25.490Z,50.51
2023-04-18T11:12:53.174Z,50.42
2023-04-18T11:15:24.672Z,50.15
2023-04-18T11:18:04.874Z,49.84
2023-04-18T11:20:39.450Z,49.68
2023-04-18T11:23:16.788Z,48.90
2023-04-18T11:25:44.822Z,47.31
2023-04-18T11:28:17.098Z,47.56
2023-04-18T11:30:43.596Z,46.08
2023-04-18T11:33:11.584Z,44.84
2023-04-18T11:35:42.520Z,44.54
2023-04-18T11:38:11.629Z,44.37
2023-04-18T11:40:38.630Z,43.76
2023-04-18T11:43:07.150Z,44.62
2023-04-18T11:45:34.023Z,45.16
2023-04-18T11:48:00.930Z,45.39
2023-04-18T11:50:27.632Z,45.54
2023-04-18T11:52:55.287Z,46.18
2023-04-18T11:55:24.994Z,46.49
2023-04-18T11:57:56.518Z,46.66
2023-04-18T12:00:41.821Z,46.69
2023-04-18T12:03:15.741Z,47.37
2023-04-18T12:05:45.396Z,47.72
2023-04-18T12:08:17.217Z,48.00
2023-04-18T12:10:48.297Z,47.81
2023-04-18T12:13:15.174Z,47.89
2023-04-18T12:15:44.374Z,48.27
2023-04-18T12:18:13.283Z,47.90
2023-04-18T12:20:50.388Z,47.91
2023-04-18T12:23:35.459Z,47.88
2023-04-18T12:26:22.526Z,46.89
2023-04-18T12:28:52.838Z,46.08
2023-04-18T12:31:19.469Z,45.56
2023-04-18T12:33:45.883Z,45.83
2023-04-18T12:36:12.396Z,45.74
2023-04-18T12:38:39.011Z,46.38
2023-04-18T12:41:05.593Z,46.89
2023-04-18T12:43:32.519Z,47.29
2023-04-18T12:46:00.590Z,47.14
2023-04-18T12:48:27.100Z,47.15
2023-04-18T12:50:53.540Z,47.15
2023-04-18T12:53:22.702Z,47.92
2023-04-18T12:55:49.275Z,48.32
2023-04-18T12:58:18.593Z,48.97
2023-04-18T13:00:47.923Z,49.40
2023-04-18T13:03:14.548Z,49.08
2023-04-18T13:05:41.420Z,49.29
2023-04-18T13:08:16.959Z,49.30
2023-04-18T13:10:44.774Z,49.91
2023-04-18T13:13:11.375Z,50.04
2023-04-18T13:15:38.201Z,50.00
2023-04-18T13:18:06.725Z,50.44
2023-04-18T13:20:34.484Z,50.48
2023-04-18T13:23:02.584Z,50.60
2023-04-18T13:25:29.130Z,49.94
2023-04-18T13:27:56.275Z,50.06
2023-04-18T13:30:22.725Z,49.92
2023-04-18T13:32:49.359Z,49.66
2023-04-18T13:35:15.891Z,48.95
2023-04-18T13:37:42.658Z,48.45
2023-04-18T13:40:11.837Z,48.93
2023-04-18T13:42:38.661Z,48.46
2023-04-18T13:45:07.602Z,48.24
2023-04-18T13:47:34.810Z,48.84
2023-04-18T13:50:01.478Z,48.85
2023-04-18T13:52:28.100Z,48.89
2023-04-18T13:54:55.310Z,48.81
2023-04-18T13:57:23.078Z,48.91
2023-04-18T13:59:49.556Z,48.76
2023-04-18T14:02:16.162Z,48.97
2023-04-18T14:04:46.473Z,48.53
2023-04-18T14:07:13.151Z,48.65
2023-04-18T14:09:42.368Z,48.68
2023-04-18T14:12:08.860Z,48.18
2023-04-18T14:14:35.428Z,48.60
2023-04-18T14:17:01.951Z,48.29
2023-04-18T14:19:28.418Z,48.00
2023-04-18T14:21:55.270Z,47.93
2023-04-18T14:24:21.808Z,47.26
2023-04-18T14:26:48.337Z,47.54
2023-04-18T14:29:14.941Z,47.11
2023-04-18T14:31:41.688Z,46.81
2023-04-18T14:34:09.849Z,47.25
2023-04-18T14:36:36.532Z,47.22
2023-04-18T14:39:03.507Z,46.81
2023-04-18T14:41:29.930Z,46.71
2023-04-18T14:43:56.601Z,46.95
2023-04-18T14:46:23.174Z,47.61
2023-04-18T14:48:49.889Z,47.64
2023-04-18T14:51:16.970Z,47.84
2023-04-18T14:53:44.407Z,47.53
2023-04-18T14:56:11.221Z,47.10
2023-04-18T14:58:37.716Z,47.64
2023-04-18T15:01:04.448Z,47.97
2023-04-18T15:03:33.080Z,47.97
2023-04-18T15:05:59.938Z,47.98
2023-04-18T15:08:27.892Z,48.06
2023-04-18T15:10:54.550Z,47.90
2023-04-18T15:13:21.157Z,47.54
2023-04-18T15:15:56.922Z,47.75
2023-04-18T15:18:25.731Z,47.61
2023-04-18T15:20:52.179Z,47.59
2023-04-18T15:23:18.802Z,47.70
2023-04-18T15:25:45.725Z,47.33
2023-04-18T15:28:13.828Z,46.98
2023-04-18T15:30:40.636Z,47.47
2023-04-18T15:33:07.506Z,47.85
2023-04-18T15:35:34.032Z,47.76
2023-04-18T15:38:00.529Z,47.78
2023-04-18T15:40:26.990Z,47.73
2023-04-18T15:42:54.389Z,47.87
2023-04-18T15:45:21.229Z,48.12
2023-04-18T15:47:47.842Z,48.03
2023-04-18T15:50:16.245Z,47.90
2023-04-18T15:52:44.520Z,48.02
2023-04-18T15:55:13.023Z,47.82
2023-04-18T15:57:40.698Z,47.85
2023-04-18T16:00:17.956Z,47.58
2023-04-18T16:02:45.250Z,47.34
2023-04-18T16:05:12.524Z,47.57
2023-04-18T16:07:40.829Z,47.76
2023-04-18T16:10:11.296Z,47.41
2023-04-18T16:12:38.427Z,47.57
2023-04-18T16:15:07.997Z,47.68
2023-04-18T16:17:35.532Z,47.66
2023-04-18T16:20:02.397Z,48.30
2023-04-18T16:22:29.038Z,47.47
2023-04-18T16:24:55.557Z,47.37
2023-04-18T16:27:22.100Z,47.02
2023-04-18T16:29:48.478Z,47.35
2023-04-18T16:32:15.149Z,47.83
2023-04-18T16:34:41.680Z,47.69
2023-04-18T16:37:08.258Z,47.94
2023-04-18T16:39:34.721Z,47.60
2023-04-18T16:42:01.515Z,47.58
2023-04-18T16:44:28.135Z,47.16
2023-04-18T16:46:54.643Z,47.54
2023-04-18T16:49:21.264Z,47.79
2023-04-18T16:51:47.804Z,47.75
2023-04-18T16:54:14.593Z,48.00
2023-04-18T16:56:41.972Z,48.23
2023-04-18T16:59:10.656Z,48.55
2023-04-18T17:01:37.253Z,48.24
2023-04-18T17:04:04.365Z,48.82
2023-04-18T17:06:31.992Z,48.51
2023-04-18T17:08:58.888Z,47.75
2023-04-18T17:11:26.385Z,47.93
2023-04-18T17:13:52.769Z,48.14
2023-04-18T17:16:19.296Z,48.47
2023-04-18T17:18:45.749Z,48.62
2023-04-18T17:21:12.531Z,48.88
2023-04-18T17:23:42.713Z,48.85
2023-04-18T17:26:09.497Z,49.26
2023-04-18T17:28:36.473Z,49.11
2023-04-18T17:31:03.715Z,49.12
2023-04-18T17:33:30.978Z,49.20
2023-04-18T17:35:58.075Z,49.46
2023-04-18T17:38:24.585Z,49.42
2023-04-18T17:41:01.891Z,49.74
2023-04-18T17:43:28.709Z,49.84
2023-04-18T17:45:56.955Z,50.10
2023-04-18T17:48:23.513Z,50.29
2023-04-18T17:50:50.924Z,50.21
2023-04-18T17:53:18.003Z,50.38
2023-04-18T17:55:45.214Z,50.44
2023-04-18T17:58:11.826Z,50.89
2023-04-18T18:00:38.403Z,50.84
2023-04-18T18:03:05.233Z,51.08
2023-04-18T18:05:31.841Z,51.32
2023-04-18T18:07:59.913Z,51.47
2023-04-18T18:10:27.098Z,51.18
2023-04-18T18:12:56.501Z,51.69
2023-04-18T18:15:24.262Z,51.75
2023-04-18T18:17:51.432Z,51.80
2023-04-18T18:20:18.231Z,51.65
2023-04-18T18:22:44.641Z,51.81
2023-04-18T18:25:11.123Z,51.54
2023-04-18T18:27:37.712Z,51.90
2023-04-18T18:30:04.667Z,51.97
2023-04-18T18:32:31.232Z,51.89
2023-04-18T18:34:57.683Z,52.06
2023-04-18T18:37:25.987Z,52.11
2023-04-18T18:39:55.059Z,52.23
2023-04-18T18:42:21.886Z,52.13
2023-04-18T18:44:48.371Z,52.46
2023-04-18T18:47:14.755Z,52.52
2023-04-18T18:49:41.253Z,52.48
2023-04-18T18:52:07.687Z,52.74
2023-04-18T18:54:34.474Z,52.73
2023-04-18T18:57:03.473Z,52.87
2023-04-18T18:59:33.319Z,53.15
2023-04-18T19:01:59.873Z,53.64
2023-04-18T19:04:26.576Z,54.31
2023-04-18T19:06:53.556Z,54.70
2023-04-18T19:09:22.994Z,55.11
2023-04-18T19:11:49.681Z,55.36
2023-04-18T19:14:16.130Z,55.82
2023-04-18T19:16:42.715Z,56.09
2023-04-18T19:19:10.086Z,56.40
2023-04-18T19:21:36.488Z,56.72
2023-04-18T19:24:02.982Z,57.36
2023-04-18T19:26:29.463Z,57.33
2023-04-18T19:28:55.987Z,57.46
2023-04-18T19:31:22.524Z,57.75
2023-04-18T19:33:50.030Z,57.97
2023-04-18T19:36:16.707Z,58.19
2023-04-18T19:38:43.105Z,58.64
2023-04-18T19:41:09.687Z,58.79
2023-04-18T19:43:38.332Z,59.05
2023-04-18T19:46:04.840Z,59.25
2023-04-18T19:48:31.461Z,59.33
2023-04-18T19:50:58.081Z,59.49
2023-04-18T19:53:27.655Z,59.46
2023-04-18T19:55:54.969Z,59.73
2023-04-18T19:58:44.585Z,60.07
2023-04-18T20:01:12.638Z,60.30
2023-04-18T20:03:41.014Z,60.40
2023-04-18T20:06:08.136Z,60.41
2023-04-18T20:08:41.397Z,60.38
2023-04-18T20:11:10.367Z,60.30
2023-04-18T20:13:37.519Z,60.33
2023-04-18T20:16:05.248Z,61.01
2023-04-18T20:18:32.217Z,60.95
2023-04-18T20:20:58.660Z,60.80
2023-04-18T20:23:26.269Z,61.52
2023-04-18T20:25:52.711Z,61.68
2023-04-18T20:28:21.371Z,61.69
2023-04-18T20:30:48.612Z,61.35
2023-04-18T20:33:15.368Z,61.67
2023-04-18T20:35:41.888Z,61.90
2023-04-18T20:38:09.740Z,62.04
2023-04-18T20:40:39.079Z,62.13
2023-04-18T20:43:07.928Z,62.13
2023-04-18T20:45:37.490Z,62.15
2023-04-18T20:48:04.450Z,62.55
2023-04-18T20:50:31.985Z,62.62
2023-04-18T20:53:00.369Z,62.55
2023-04-18T20:55:26.741Z,62.54
2023-04-18T20:57:53.276Z,62.74
2023-04-18T21:00:20.022Z,62.91
2023-04-18T21:02:46.747Z,62.73
2023-04-18T21:05:13.286Z,62.53
2023-04-18T21:07:44.026Z,62.82
2023-04-18T21:10:11.902Z,62.56
2023-04-18T21:12:38.349Z,62.88
2023-04-18T21:15:05.658Z,62.77
2023-04-18T21:17:32.184Z,62.61
2023-04-18T21:19:58.695Z,62.96
2023-04-18T21:22:25.258Z,62.88
2023-04-18T21:24:51.685Z,62.68
2023-04-18T21:27:18.070Z,63.00
2023-04-18T21:29:44.463Z,62.90
2023-04-18T21:32:10.888Z,62.77
2023-04-18T21:34:37.379Z,62.84
2023-04-18T21:37:03.845Z,63.02
2023-04-18T21:39:30.815Z,63.32
2023-04-18T21:41:57.307Z,63.43
2023-04-18T21:44:23.668Z,63.68
2023-04-18T21:46:50.150Z,63.81
2023-04-18T21:49:16.686Z,64.23
2023-04-18T21:51:43.386Z,64.64
2023-04-18T21:54:09.815Z,64.42
2023-04-18T21:56:37.498Z,64.68
2023-04-18T21:59:04.169Z,64.83
2023-04-18T22:01:30.822Z,65.08
2023-04-18T22:03:57.623Z,65.19
2023-04-18T22:06:24.199Z,65.33
2023-04-18T22:08:51.527Z,65.74
2023-04-18T22:11:18.732Z,65.58
2023-04-18T22:13:45.807Z,65.74
2023-04-18T22:16:12.244Z,65.72
2023-04-18T22:18:38.706Z,65.67
2023-04-18T22:21:06.028Z,66.06
2023-04-18T22:23:32.508Z,66.22
2023-04-18T22:25:58.955Z,66.54
2023-04-18T22:28:27.791Z,66.90
2023-04-18T22:30:54.365Z,66.68
2023-04-18T22:33:20.864Z,67.39
2023-04-18T22:35:48.551Z,67.35
2023-04-18T22:38:15.487Z,67.16
2023-04-18T22:40:42.059Z,67.45
2023-04-18T22:43:08.592Z,67.44
2023-04-18T22:45:35.402Z,67.45
2023-04-18T22:48:01.884Z,67.51
2023-04-18T22:50:30.109Z,67.97
2023-04-18T22:52:57.408Z,67.76
2023-04-18T22:55:23.962Z,68.34
2023-04-18T22:57:50.434Z,68.62
2023-04-18T23:00:17.012Z,68.58
2023-04-18T23:02:43.568Z,68.34
2023-04-18T23:05:10.892Z,68.36
2023-04-18T23:07:37.379Z,68.59
2023-04-18T23:10:06.361Z,68.68
2023-04-18T23:12:32.904Z,68.80
2023-04-18T23:14:59.374Z,69.02
2023-04-18T23:17:25.974Z,69.03
2023-04-18T23:19:52.502Z,68.94
2023-04-18T23:22:20.514Z,69.88
2023-04-18T23:24:46.888Z,69.80
2023-04-18T23:27:14.940Z,70.16
2023-04-18T23:29:43.324Z,70.23
2023-04-18T23:32:09.692Z,70.33
2023-04-18T23:34:36.221Z,70.53
2023-04-18T23:37:02.628Z,70.58
2023-04-18T23:39:29.178Z,71.06
2023-04-18T23:41:56.202Z,70.87
2023-04-18T23:44:23.145Z,71.54
2023-04-18T23:46:49.810Z,71.77
2023-04-18T23:49:16.597Z,71.65
2023-04-18T23:51:43.018Z,71.99
2023-04-18T23:54:09.507Z,72.36
2023-04-18T23:56:36.045Z,72.47
2023-04-18T23:59:02.493Z,72.82
